| time (UTC) | temp C | wind direction | speed KPH | gust KPH | rain 1hr cm | rain 24hr cm | rain mn cm | humidity % | barometer mb |
| 20260510143854 | 18 | 358 | 3.2 | 4.8 | 0.00 | 0.00 | 0.00 | 62 | 1019.5 |
| 20260510143351 | 18 | 354 | 3.2 | 9.7 | 0.00 | 0.00 | 0.00 | 62 | 1019.4 |
| 20260510142848 | 18 | 358 | 0.0 | 9.7 | 0.00 | 0.00 | 0.00 | 62 | 1019.6 |
| 20260510142344 | 18 | 0 | 1.6 | 11.3 | 0.00 | 0.00 | 0.00 | 63 | 1019.4 |
| 20260510141841 | 17 | 0 | 1.6 | 6.4 | 0.00 | 0.00 | 0.00 | 64 | 1019.2 |
| 20260510141339 | 17 | 2 | 4.8 | 14.5 | 0.00 | 0.00 | 0.00 | 64 | 1019.1 |
| 20260510140836 | 18 | 350 | 1.6 | 11.3 | 0.00 | 0.00 | 0.00 | 64 | 1018.9 |
| 20260510140332 | 17 | 355 | 1.6 | 6.4 | 0.00 | 0.00 | 0.00 | 65 | 1019.0 |
| 20260510135831 | 18 | 350 | 6.4 | 12.9 | 0.00 | 0.00 | 0.00 | 64 | 1018.7 |
| 20260510135327 | 18 | 344 | 3.2 | 6.4 | 0.00 | 0.00 | 0.00 | 64 | 1018.9 |
| 20260510134825 | 17 | 55 | 1.6 | 4.8 | 0.00 | 0.00 | 0.00 | 64 | 1018.8 |
| 20260510134322 | 17 | 22 | 3.2 | 9.7 | 0.00 | 0.00 | 0.00 | 64 | 1018.6 |
| 20260510133817 | 17 | 339 | 4.8 | 11.3 | 0.00 | 0.00 | 0.00 | 64 | 1018.8 |
| 20260510133314 | 17 | 8 | 3.2 | 11.3 | 0.00 | 0.00 | 0.00 | 64 | 1018.7 |
| 20260510132809 | 17 | 3 | 1.6 | 3.2 | 0.00 | 0.00 | 0.00 | 67 | 1018.5 |
| 20260510132308 | 17 | 355 | 1.6 | 6.4 | 0.00 | 0.00 | 0.00 | 67 | 1018.1 |
| 20260510131804 | 17 | 311 | 6.4 | 9.7 | 0.00 | 0.00 | 0.00 | 67 | 1018.4 |
| 20260510131302 | 17 | 355 | 3.2 | 11.3 | 0.00 | 0.00 | 0.00 | 67 | 1018.1 |
| 20260510130758 | 17 | 178 | 8.0 | 11.3 | 0.00 | 0.00 | 0.00 | 68 | 1018.1 |
| 20260510130255 | 17 | 353 | 3.2 | 6.4 | 0.00 | 0.00 | 0.00 | 69 | 1017.9 |
| 20260510125751 | 16 | 18 | 3.2 | 6.4 | 0.00 | 0.00 | 0.00 | 70 | 1018.0 |
| 20260510125247 | 16 | 66 | 0.0 | 3.2 | 0.00 | 0.00 | 0.00 | 72 | 1018.0 |
| 20260510124744 | 15 | 359 | 1.6 | 9.7 | 0.00 | 0.00 | 0.00 | 73 | 1017.8 |
| 20260510124242 | 15 | 354 | 0.0 | 3.2 | 0.00 | 0.00 | 0.00 | 74 | 1017.8 |
| 20260510123737 | 15 | 353 | 1.6 | 3.2 | 0.00 | 0.00 | 0.00 | 75 | 1017.6 |
| 20260510123234 | 15 | 28 | 1.6 | 1.6 | 0.00 | 0.00 | 0.00 | 75 | 1017.4 |
| 20260510122730 | 15 | 1 | 3.2 | 6.4 | 0.00 | 0.00 | 0.00 | 75 | 1017.4 |
| 20260510122226 | 15 | 11 | 0.0 | 6.4 | 0.00 | 0.00 | 0.00 | 75 | 1017.3 |
| 20260510121722 | 15 | 56 | 4.8 | 6.4 | 0.00 | 0.00 | 0.00 | 75 | 1017.2 |
| 20260510121220 | 15 | 356 | 0.0 | 3.2 | 0.00 | 0.00 | 0.00 | 77 | 1017.2 |
| 20260510120717 | 15 | 350 | 1.6 | 1.6 | 0.00 | 0.00 | 0.00 | 78 | 1017.1 |
| 20260510120214 | 15 | 77 | 1.6 | 3.2 | 0.00 | 0.00 | 0.00 | 78 | 1017.0 |
| 20260510115709 | 15 | 119 | 3.2 | 4.8 | 0.00 | 0.00 | 0.00 | 78 | 1017.0 |
| 20260510115208 | 15 | 351 | 0.0 | 1.6 | 0.00 | 0.00 | 0.00 | 78 | 1017.0 |
| 20260510114703 | 15 | 357 | 0.0 | 0.0 | 0.00 | 0.00 | 0.00 | 78 | 1017.0 |
| 20260510114200 | 15 | 357 | 0.0 | 1.6 | 0.00 | 0.00 | 0.00 | 78 | 1016.8 |
| 20260510113654 | 15 | 358 | 3.2 | 4.8 | 0.00 | 0.00 | 0.00 | 77 | 1017.0 |
| 20260510113152 | 15 | 359 | 0.0 | 1.6 | 0.00 | 0.00 | 0.00 | 77 | 1016.5 |
| 20260510112649 | 15 | 359 | 0.0 | 4.8 | 0.00 | 0.00 | 0.00 | 78 | 1016.5 |
| 20260510112146 | 14 | 351 | 0.0 | 0.0 | 0.00 | 0.00 | 0.00 | 77 | 1016.3 |
| 20260510111642 | 14 | 351 | 0.0 | 0.0 | 0.00 | 0.00 | 0.00 | 77 | 1016.1 |
| 20260510111138 | 14 | 351 | 0.0 | 0.0 | 0.00 | 0.00 | 0.00 | 77 | 1016.3 |
| 20260510110633 | 14 | 351 | 0.0 | 0.0 | 0.00 | 0.00 | 0.00 | 78 | 1016.3 |
| 20260510110131 | 13 | 351 | 0.0 | 0.0 | 0.00 | 0.00 | 0.00 | 79 | 1016.1 |
| 20260510105627 | 13 | 351 | 0.0 | 1.6 | 0.00 | 0.00 | 0.00 | 82 | 1016.0 |
| 20260510105126 | 13 | 351 | 0.0 | 1.6 | 0.00 | 0.00 | 0.00 | 85 | 1016.0 |
| 20260510104624 | 13 | 351 | 0.0 | 0.0 | 0.00 | 0.00 | 0.00 | 86 | 1016.1 |
| 20260510104120 | 13 | 351 | 0.0 | 0.0 | 0.00 | 0.00 | 0.00 | 86 | 1016.2 |
| 20260510103617 | 13 | 351 | 0.0 | 0.0 | 0.00 | 0.00 | 0.00 | 85 | 1016.2 |
| 20260510103113 | 13 | 351 | 0.0 | 0.0 | 0.00 | 0.00 | 0.00 | 85 | 1016.2 |
| 20260510102608 | 13 | 351 | 0.0 | 0.0 | 0.00 | 0.00 | 0.00 | 85 | 1016.2 |
| 20260510102105 | 13 | 351 | 0.0 | 0.0 | 0.00 | 0.00 | 0.00 | 85 | 1016.0 |
| 20260510101602 | 13 | 351 | 0.0 | 0.0 | 0.00 | 0.00 | 0.00 | 85 | 1016.1 |
| 20260510101101 | 13 | 351 | 0.0 | 0.0 | 0.00 | 0.00 | 0.00 | 85 | 1015.9 |
| 20260510100556 | 13 | 351 | 0.0 | 0.0 | 0.00 | 0.00 | 0.00 | 85 | 1015.5 |
| 20260510100054 | 13 | 351 | 0.0 | 0.0 | 0.00 | 0.00 | 0.00 | 85 | 1015.5 |
| 20260510095550 | 13 | 351 | 0.0 | 0.0 | 0.00 | 0.00 | 0.00 | 85 | 1015.5 |
| 20260510095049 | 13 | 351 | 0.0 | 0.0 | 0.00 | 0.00 | 0.00 | 85 | 1015.4 |
| 20260510094544 | 13 | 351 | 0.0 | 0.0 | 0.00 | 0.00 | 0.00 | 85 | 1015.6 |
| 20260510094040 | 13 | 351 | 0.0 | 0.0 | 0.00 | 0.00 | 0.00 | 85 | 1015.5 |
| 20260510093536 | 13 | 351 | 0.0 | 0.0 | 0.00 | 0.00 | 0.00 | 85 | 1015.4 |
| 20260510093033 | 13 | 351 | 0.0 | 0.0 | 0.00 | 0.00 | 0.00 | 84 | 1015.6 |
| 20260510092530 | 13 | 351 | 0.0 | 0.0 | 0.00 | 0.00 | 0.00 | 84 | 1015.1 |
| 20260510092029 | 13 | 351 | 0.0 | 0.0 | 0.00 | 0.00 | 0.00 | 83 | 1015.1 |
| 20260510091526 | 13 | 351 | 0.0 | 0.0 | 0.00 | 0.00 | 0.00 | 83 | 1015.1 |
| 20260510091022 | 13 | 351 | 0.0 | 0.0 | 0.00 | 0.00 | 0.00 | 83 | 1015.0 |
| 20260510090520 | 13 | 351 | 0.0 | 0.0 | 0.00 | 0.00 | 0.00 | 82 | 1015.0 |
| 20260510090015 | 13 | 351 | 0.0 | 0.0 | 0.00 | 0.00 | 0.00 | 82 | 1015.1 |
| 20260510085510 | 13 | 351 | 0.0 | 0.0 | 0.00 | 0.00 | 0.00 | 81 | 1015.1 |
| 20260510085006 | 14 | 351 | 0.0 | 0.0 | 0.00 | 0.00 | 0.00 | 82 | 1014.9 |
| 20260510084503 | 14 | 351 | 0.0 | 0.0 | 0.00 | 0.00 | 0.00 | 81 | 1014.9 |
| 20260510083959 | 14 | 351 | 0.0 | 0.0 | 0.00 | 0.00 | 0.00 | 80 | 1014.7 |
| 20260510083456 | 14 | 351 | 0.0 | 1.6 | 0.00 | 0.00 | 0.00 | 80 | 1014.6 |
| 20260510082951 | 14 | 351 | 0.0 | 1.6 | 0.00 | 0.00 | 0.00 | 80 | 1014.5 |
| 20260510082449 | 14 | 351 | 0.0 | 0.0 | 0.00 | 0.00 | 0.00 | 80 | 1014.3 |
| 20260510081949 | 14 | 351 | 0.0 | 1.6 | 0.00 | 0.00 | 0.00 | 80 | 1014.3 |
| 20260510081445 | 14 | 351 | 1.6 | 1.6 | 0.00 | 0.00 | 0.00 | 79 | 1014.5 |
| 20260510080941 | 14 | 351 | 0.0 | 0.0 | 0.00 | 0.00 | 0.00 | 79 | 1014.9 |
| 20260510080439 | 14 | 351 | 0.0 | 0.0 | 0.00 | 0.00 | 0.00 | 79 | 1015.2 |
| 20260510075937 | 14 | 351 | 0.0 | 1.6 | 0.00 | 0.00 | 0.00 | 79 | 1015.0 |
| 20260510075435 | 14 | 351 | 0.0 | 0.0 | 0.00 | 0.00 | 0.00 | 79 | 1015.2 |
| 20260510074931 | 14 | 351 | 0.0 | 0.0 | 0.00 | 0.00 | 0.00 | 79 | 1014.7 |
| 20260510074428 | 14 | 351 | 0.0 | 0.0 | 0.00 | 0.00 | 0.00 | 79 | 1014.9 |
| 20260510073925 | 13 | 351 | 0.0 | 0.0 | 0.00 | 0.00 | 0.00 | 79 | 1014.6 |
| 20260510073420 | 14 | 351 | 0.0 | 0.0 | 0.00 | 0.00 | 0.00 | 79 | 1014.5 |
| 20260510072917 | 14 | 351 | 0.0 | 0.0 | 0.00 | 0.00 | 0.00 | 78 | 1014.5 |
| 20260510072414 | 14 | 351 | 0.0 | 1.6 | 0.00 | 0.00 | 0.00 | 78 | 1014.4 |
| 20260510071909 | 14 | 351 | 0.0 | 0.0 | 0.00 | 0.00 | 0.00 | 77 | 1014.4 |
| 20260510071406 | 14 | 351 | 0.0 | 0.0 | 0.00 | 0.00 | 0.00 | 77 | 1014.5 |
| 20260510070905 | 14 | 351 | 0.0 | 0.0 | 0.00 | 0.00 | 0.00 | 76 | 1014.4 |
| 20260510070401 | 14 | 351 | 0.0 | 1.6 | 0.00 | 0.00 | 0.00 | 76 | 1014.4 |
| 20260510065856 | 14 | 351 | 0.0 | 0.0 | 0.00 | 0.00 | 0.00 | 76 | 1014.7 |
| 20260510065353 | 15 | 351 | 0.0 | 0.0 | 0.00 | 0.00 | 0.00 | 75 | 1014.4 |
| 20260510064850 | 15 | 351 | 0.0 | 0.0 | 0.00 | 0.00 | 0.00 | 74 | 1014.4 |
| 20260510064348 | 15 | 351 | 0.0 | 0.0 | 0.00 | 0.00 | 0.00 | 73 | 1014.4 |
| 20260510063843 | 15 | 351 | 0.0 | 0.0 | 0.00 | 0.00 | 0.00 | 72 | 1014.5 |
| 20260510063340 | 15 | 351 | 0.0 | 0.0 | 0.00 | 0.00 | 0.00 | 71 | 1014.5 |
| 20260510062837 | 16 | 351 | 0.0 | 0.0 | 0.00 | 0.00 | 0.00 | 70 | 1014.7 |
| 20260510062332 | 16 | 351 | 0.0 | 0.0 | 0.00 | 0.00 | 0.00 | 69 | 1014.7 |
| 20260510061828 | 16 | 351 | 0.0 | 0.0 | 0.00 | 0.00 | 0.00 | 68 | 1014.6 |
| 20260510061325 | 16 | 351 | 0.0 | 0.0 | 0.00 | 0.00 | 0.00 | 67 | 1014.6 |
| 20260510060821 | 16 | 351 | 0.0 | 0.0 | 0.00 | 0.00 | 0.00 | 67 | 1014.5 |
| 20260510060318 | 16 | 351 | 0.0 | 3.2 | 0.00 | 0.00 | 0.00 | 66 | 1014.7 |
| 20260510055815 | 15 | 353 | 1.6 | 3.2 | 0.00 | 0.00 | 0.00 | 73 | 1014.9 |
| 20260510055314 | 14 | 356 | 0.0 | 4.8 | 0.00 | 0.00 | 0.00 | 78 | 1014.4 |
| 20260510054813 | 14 | 13 | 1.6 | 1.6 | 0.00 | 0.00 | 0.00 | 79 | 1014.4 |
| 20260510054309 | 14 | 13 | 0.0 | 0.0 | 0.00 | 0.00 | 0.00 | 79 | 1014.2 |
| 20260510053810 | 15 | 13 | 0.0 | 0.0 | 0.00 | 0.00 | 0.00 | 78 | 1014.4 |
| 20260510053305 | 15 | 13 | 0.0 | 0.0 | 0.00 | 0.00 | 0.00 | 78 | 1014.3 |
| 20260510052802 | 15 | 13 | 0.0 | 0.0 | 0.00 | 0.00 | 0.00 | 77 | 1014.3 |
| 20260510052257 | 15 | 13 | 0.0 | 0.0 | 0.00 | 0.00 | 0.00 | 77 | 1014.4 |
| 20260510051754 | 15 | 13 | 0.0 | 1.6 | 0.00 | 0.00 | 0.00 | 76 | 1014.2 |
| 20260510051250 | 15 | 13 | 0.0 | 0.0 | 0.00 | 0.00 | 0.00 | 75 | 1014.2 |
| 20260510050747 | 15 | 13 | 0.0 | 0.0 | 0.00 | 0.00 | 0.00 | 75 | 1014.4 |
| 20260510050244 | 15 | 13 | 0.0 | 0.0 | 0.00 | 0.00 | 0.00 | 74 | 1014.2 |
| 20260510045742 | 15 | 13 | 0.0 | 0.0 | 0.00 | 0.03 | 0.03 | 74 | 1014.1 |
| 20260510045238 | 15 | 13 | 0.0 | 0.0 | 0.00 | 0.03 | 0.03 | 73 | 1014.0 |
| 20260510044735 | 15 | 13 | 0.0 | 0.0 | 0.00 | 0.03 | 0.03 | 72 | 1013.9 |
| 20260510044233 | 16 | 13 | 0.0 | 0.0 | 0.00 | 0.03 | 0.03 | 71 | 1014.2 |
| 20260510043727 | 16 | 13 | 0.0 | 0.0 | 0.00 | 0.03 | 0.03 | 71 | 1014.0 |
| 20260510043225 | 16 | 13 | 0.0 | 0.0 | 0.00 | 0.03 | 0.03 | 71 | 1014.1 |
| 20260510042722 | 16 | 13 | 0.0 | 0.0 | 0.00 | 0.03 | 0.03 | 71 | 1014.1 |
| 20260510042218 | 15 | 13 | 0.0 | 1.6 | 0.00 | 0.03 | 0.03 | 71 | 1014.2 |
| 20260510041715 | 15 | 13 | 0.0 | 0.0 | 0.00 | 0.03 | 0.03 | 71 | 1014.1 |
| 20260510041212 | 15 | 13 | 0.0 | 0.0 | 0.00 | 0.03 | 0.03 | 70 | 1013.7 |
| 20260510040709 | 15 | 13 | 0.0 | 0.0 | 0.00 | 0.03 | 0.03 | 70 | 1013.9 |
| 20260510040206 | 15 | 13 | 0.0 | 0.0 | 0.00 | 0.03 | 0.03 | 70 | 1013.7 |
| 20260510035701 | 15 | 13 | 0.0 | 0.0 | 0.00 | 0.03 | 0.03 | 70 | 1013.6 |
| 20260510035157 | 15 | 13 | 0.0 | 1.6 | 0.00 | 0.03 | 0.03 | 69 | 1013.7 |
| 20260510034653 | 15 | 357 | 0.0 | 0.0 | 0.00 | 0.03 | 0.03 | 69 | 1013.7 |
| 20260510034151 | 15 | 357 | 0.0 | 0.0 | 0.00 | 0.03 | 0.03 | 69 | 1013.6 |
| 20260510033647 | 15 | 356 | 0.0 | 0.0 | 0.00 | 0.03 | 0.03 | 67 | 1013.8 |
| 20260510033145 | 15 | 356 | 0.0 | 0.0 | 0.00 | 0.03 | 0.03 | 68 | 1013.6 |
| 20260510032641 | 16 | 356 | 0.0 | 0.0 | 0.00 | 0.03 | 0.03 | 68 | 1013.6 |
| 20260510032136 | 16 | 356 | 0.0 | 0.0 | 0.00 | 0.03 | 0.03 | 67 | 1013.5 |
| 20260510031631 | 16 | 357 | 0.0 | 0.0 | 0.00 | 0.03 | 0.03 | 67 | 1013.7 |
| 20260510031129 | 16 | 357 | 0.0 | 0.0 | 0.00 | 0.03 | 0.03 | 67 | 1013.5 |
| 20260510030623 | 16 | 356 | 0.0 | 0.0 | 0.00 | 0.03 | 0.03 | 66 | 1013.5 |
| 20260510030121 | 16 | 356 | 0.0 | 0.0 | 0.00 | 0.03 | 0.03 | 65 | 1013.2 |
| 20260510025618 | 16 | 356 | 0.0 | 0.0 | 0.00 | 0.03 | 0.03 | 64 | 1013.3 |
| 20260510025115 | 16 | 356 | 0.0 | 0.0 | 0.00 | 0.03 | 0.03 | 64 | 1013.1 |
| 20260510024612 | 16 | 357 | 0.0 | 0.0 | 0.00 | 0.03 | 0.03 | 63 | 1013.4 |
| 20260510024108 | 17 | 357 | 0.0 | 0.0 | 0.00 | 0.03 | 0.03 | 62 | 1012.9 |
| 20260510023604 | 17 | 357 | 0.0 | 0.0 | 0.00 | 0.03 | 0.03 | 61 | 1012.7 |
| 20260510023102 | 17 | 356 | 0.0 | 0.0 | 0.00 | 0.03 | 0.03 | 60 | 1012.5 |
| 20260510022601 | 17 | 357 | 0.0 | 0.0 | 0.00 | 0.03 | 0.03 | 60 | 1012.5 |
| 20260510022056 | 17 | 356 | 0.0 | 0.0 | 0.00 | 0.03 | 0.03 | 58 | 1012.6 |
| 20260510021552 | 17 | 356 | 0.0 | 0.0 | 0.00 | 0.03 | 0.03 | 57 | 1012.4 |
| 20260510021050 | 18 | 356 | 0.0 | 0.0 | 0.00 | 0.03 | 0.03 | 56 | 1012.3 |
| 20260510020544 | 18 | 357 | 0.0 | 0.0 | 0.00 | 0.03 | 0.03 | 56 | 1012.3 |
| 20260510020040 | 18 | 357 | 0.0 | 0.0 | 0.00 | 0.03 | 0.03 | 54 | 1012.3 |
| 20260510015536 | 18 | 357 | 0.0 | 0.0 | 0.00 | 0.03 | 0.03 | 53 | 1011.8 |
| 20260510015032 | 19 | 357 | 0.0 | 0.0 | 0.00 | 0.03 | 0.03 | 52 | 1011.9 |
| 20260510014529 | 19 | 357 | 0.0 | 0.0 | 0.00 | 0.03 | 0.03 | 52 | 1011.7 |
| 20260510014026 | 20 | 357 | 0.0 | 0.0 | 0.00 | 0.03 | 0.03 | 50 | 1011.6 |
| 20260510013520 | 20 | 357 | 0.0 | 0.0 | 0.00 | 0.03 | 0.03 | 50 | 1011.7 |
| 20260510013017 | 20 | 357 | 0.0 | 0.0 | 0.00 | 0.03 | 0.03 | 48 | 1011.5 |
| 20260510012516 | 21 | 357 | 0.0 | 0.0 | 0.00 | 0.03 | 0.03 | 47 | 1011.4 |
| 20260510012013 | 21 | 357 | 0.0 | 0.0 | 0.00 | 0.03 | 0.03 | 45 | 1011.5 |
| 20260510011507 | 22 | 357 | 0.0 | 0.0 | 0.00 | 0.03 | 0.03 | 43 | 1011.5 |
| 20260510011003 | 22 | 357 | 0.0 | 0.0 | 0.00 | 0.03 | 0.03 | 42 | 1011.4 |
| 20260510010500 | 22 | 357 | 0.0 | 0.0 | 0.00 | 0.03 | 0.03 | 41 | 1011.3 |
| 20260510005957 | 23 | 357 | 0.0 | 0.0 | 0.00 | 0.03 | 0.03 | 38 | 1011.3 |
| 20260510005453 | 23 | 357 | 0.0 | 0.0 | 0.00 | 0.03 | 0.03 | 37 | 1011.2 |
| 20260510004951 | 23 | 357 | 0.0 | 0.0 | 0.00 | 0.03 | 0.03 | 36 | 1011.1 |
| 20260510004447 | 23 | 357 | 0.0 | 0.0 | 0.00 | 0.03 | 0.03 | 36 | 1011.1 |
| 20260510003946 | 24 | 357 | 0.0 | 1.6 | 0.00 | 0.03 | 0.03 | 35 | 1011.0 |
| 20260510003442 | 24 | 351 | 1.6 | 3.2 | 0.00 | 0.03 | 0.03 | 35 | 1011.0 |
| 20260510002942 | 25 | 4 | 0.0 | 1.6 | 0.00 | 0.03 | 0.03 | 36 | 1010.8 |
| 20260510002439 | 25 | 13 | 0.0 | 0.0 | 0.00 | 0.03 | 0.03 | 35 | 1011.0 |
| 20260510001935 | 25 | 43 | 0.0 | 0.0 | 0.00 | 0.03 | 0.03 | 35 | 1011.0 |
| 20260510001433 | 25 | 43 | 1.6 | 1.6 | 0.00 | 0.03 | 0.03 | 33 | 1011.1 |
| 20260510000931 | 25 | 24 | 0.0 | 1.6 | 0.00 | 0.03 | 0.03 | 34 | 1011.1 |
| 20260510000426 | 25 | 22 | 0.0 | 1.6 | 0.00 | 0.03 | 0.03 | 34 | 1011.0 |
| 20260509235923 | 25 | 358 | 0.0 | 1.6 | 0.00 | 0.03 | 0.03 | 34 | 1011.2 |
| 20260509235420 | 25 | 1 | 0.0 | 1.6 | 0.00 | 0.03 | 0.03 | 34 | 1010.9 |
| 20260509234916 | 25 | 352 | 0.0 | 1.6 | 0.00 | 0.03 | 0.03 | 32 | 1011.0 |
| 20260509234413 | 25 | 8 | 0.0 | 3.2 | 0.00 | 0.03 | 0.03 | 32 | 1011.1 |
| 20260509233911 | 25 | 2 | 1.6 | 1.6 | 0.00 | 0.03 | 0.03 | 33 | 1011.1 |
| 20260509233409 | 26 | 358 | 0.0 | 3.2 | 0.00 | 0.03 | 0.03 | 34 | 1011.2 |
| 20260509232904 | 26 | 257 | 3.2 | 4.8 | 0.00 | 0.03 | 0.03 | 32 | 1010.9 |
| 20260509232403 | 25 | 26 | 0.0 | 3.2 | 0.00 | 0.03 | 0.03 | 32 | 1010.9 |
| 20260509231858 | 26 | 345 | 1.6 | 1.6 | 0.00 | 0.03 | 0.03 | 31 | 1011.1 |
| 20260509231355 | 26 | 358 | 0.0 | 0.0 | 0.00 | 0.03 | 0.03 | 30 | 1011.0 |
| 20260509230853 | 26 | 359 | 1.6 | 3.2 | 0.00 | 0.03 | 0.03 | 32 | 1011.0 |
| 20260509230350 | 26 | 22 | 0.0 | 0.0 | 0.00 | 0.03 | 0.03 | 31 | 1011.1 |
| 20260509225845 | 26 | 5 | 1.6 | 4.8 | 0.00 | 0.03 | 0.03 | 33 | 1011.0 |
| 20260509225342 | 26 | 355 | 3.2 | 4.8 | 0.00 | 0.03 | 0.03 | 32 | 1011.1 |
| 20260509224838 | 26 | 44 | 0.0 | 1.6 | 0.00 | 0.03 | 0.03 | 33 | 1010.9 |
| 20260509224334 | 26 | 15 | 0.0 | 3.2 | 0.00 | 0.03 | 0.03 | 31 | 1010.8 |
| 20260509223831 | 26 | 245 | 3.2 | 4.8 | 0.00 | 0.03 | 0.03 | 31 | 1010.9 |
| 20260509223328 | 26 | 350 | 1.6 | 3.2 | 0.00 | 0.03 | 0.03 | 31 | 1010.9 |
| 20260509222825 | 26 | 358 | 3.2 | 4.8 | 0.00 | 0.03 | 0.03 | 32 | 1011.0 |
| 20260509222320 | 26 | 345 | 1.6 | 1.6 | 0.00 | 0.03 | 0.03 | 31 | 1010.8 |
| 20260509221815 | 26 | 249 | 6.4 | 9.7 | 0.00 | 0.03 | 0.03 | 31 | 1011.2 |
| 20260509221313 | 27 | 2 | 0.0 | 4.8 | 0.00 | 0.03 | 0.03 | 34 | 1011.2 |
| 20260509220808 | 26 | 357 | 0.0 | 3.2 | 0.00 | 0.03 | 0.03 | 32 | 1011.0 |
| 20260509220304 | 27 | 356 | 1.6 | 4.8 | 0.00 | 0.03 | 0.03 | 31 | 1011.1 |
| 20260509215800 | 26 | 24 | 1.6 | 3.2 | 0.00 | 0.03 | 0.03 | 35 | 1010.9 |
| 20260509215257 | 27 | 2 | 1.6 | 3.2 | 0.00 | 0.03 | 0.03 | 32 | 1010.9 |
| 20260509214754 | 27 | 19 | 0.0 | 4.8 | 0.00 | 0.03 | 0.03 | 32 | 1010.9 |
| 20260509214251 | 27 | 8 | 0.0 | 6.4 | 0.00 | 0.03 | 0.03 | 31 | 1011.0 |
| 20260509213748 | 27 | 35 | 1.6 | 4.8 | 0.00 | 0.03 | 0.03 | 33 | 1011.0 |
| 20260509213243 | 27 | 359 | 1.6 | 11.3 | 0.00 | 0.03 | 0.03 | 31 | 1011.0 |
| 20260509212741 | 27 | 357 | 3.2 | 6.4 | 0.00 | 0.03 | 0.03 | 30 | 1011.0 |
| 20260509212238 | 27 | 358 | 1.6 | 3.2 | 0.00 | 0.03 | 0.03 | 28 | 1011.1 |
| 20260509211734 | 27 | 7 | 1.6 | 1.6 | 0.00 | 0.03 | 0.03 | 31 | 1011.0 |
| 20260509211231 | 27 | 359 | 1.6 | 1.6 | 0.00 | 0.03 | 0.03 | 31 | 1011.1 |
| 20260509210727 | 27 | 347 | 1.6 | 9.7 | 0.00 | 0.03 | 0.03 | 30 | 1011.1 |
| 20260509210225 | 27 | 1 | 0.0 | 4.8 | 0.00 | 0.03 | 0.03 | 30 | 1011.0 |
| 20260509205724 | 27 | 359 | 3.2 | 6.4 | 0.00 | 0.03 | 0.03 | 33 | 1011.3 |
| 20260509205224 | 27 | 10 | 1.6 | 4.8 | 0.00 | 0.03 | 0.03 | 32 | 1011.4 |
| 20260509204720 | 27 | 338 | 3.2 | 6.4 | 0.00 | 0.03 | 0.03 | 30 | 1011.3 |
| 20260509204217 | 28 | 22 | 0.0 | 6.4 | 0.00 | 0.03 | 0.03 | 29 | 1011.1 |
| 20260509203713 | 28 | 25 | 1.6 | 6.4 | 0.00 | 0.03 | 0.03 | 29 | 1011.2 |
| 20260509203211 | 28 | 4 | 1.6 | 4.8 | 0.00 | 0.03 | 0.03 | 29 | 1011.3 |
| 20260509202706 | 27 | 1 | 0.0 | 6.4 | 0.00 | 0.03 | 0.03 | 28 | 1011.4 |
| 20260509202201 | 27 | 226 | 4.8 | 4.8 | 0.00 | 0.03 | 0.03 | 27 | 1011.5 |
| 20260509201657 | 27 | 315 | 1.6 | 4.8 | 0.00 | 0.03 | 0.03 | 29 | 1011.5 |
| 20260509201154 | 28 | 341 | 3.2 | 4.8 | 0.00 | 0.03 | 0.03 | 29 | 1011.6 |
| 20260509200650 | 28 | 342 | 4.8 | 12.9 | 0.00 | 0.03 | 0.03 | 26 | 1011.7 |
| 20260509200145 | 28 | 353 | 3.2 | 4.8 | 0.00 | 0.03 | 0.03 | 27 | 1011.7 |
| 20260509195642 | 28 | 2 | 0.0 | 1.6 | 0.00 | 0.03 | 0.03 | 29 | 1011.9 |
| 20260509195137 | 28 | 20 | 4.8 | 6.4 | 0.00 | 0.03 | 0.03 | 30 | 1011.7 |
| 20260509194637 | 28 | 351 | 3.2 | 6.4 | 0.00 | 0.03 | 0.03 | 30 | 1011.7 |
| 20260509194134 | 28 | 339 | 3.2 | 16.1 | 0.00 | 0.03 | 0.03 | 29 | 1011.8 |
| 20260509193630 | 28 | 344 | 4.8 | 4.8 | 0.00 | 0.03 | 0.03 | 30 | 1012.0 |
| 20260509193126 | 28 | 337 | 4.8 | 6.4 | 0.00 | 0.03 | 0.03 | 28 | 1011.9 |
| 20260509192623 | 28 | 354 | 3.2 | 9.7 | 0.00 | 0.03 | 0.03 | 29 | 1011.9 |
| 20260509192118 | 28 | 37 | 3.2 | 4.8 | 0.00 | 0.03 | 0.03 | 31 | 1012.0 |
| 20260509191618 | 28 | 12 | 0.0 | 1.6 | 0.00 | 0.03 | 0.03 | 29 | 1011.9 |
| 20260509191115 | 28 | 331 | 3.2 | 3.2 | 0.00 | 0.03 | 0.03 | 32 | 1012.2 |
| 20260509190611 | 28 | 207 | 3.2 | 4.8 | 0.00 | 0.03 | 0.03 | 29 | 1012.0 |
| 20260509190109 | 27 | 43 | 1.6 | 4.8 | 0.00 | 0.03 | 0.03 | 30 | 1011.9 |
| 20260509185606 | 28 | 357 | 3.2 | 9.7 | 0.00 | 0.03 | 0.03 | 30 | 1012.0 |
| 20260509185102 | 28 | 7 | 1.6 | 4.8 | 0.00 | 0.03 | 0.03 | 32 | 1011.9 |
| 20260509184601 | 28 | 22 | 1.6 | 3.2 | 0.00 | 0.03 | 0.03 | 32 | 1012.3 |
| 20260509184057 | 28 | 342 | 1.6 | 6.4 | 0.00 | 0.03 | 0.03 | 33 | 1012.3 |
| 20260509183552 | 28 | 352 | 3.2 | 4.8 | 0.00 | 0.03 | 0.03 | 28 | 1011.8 |
| 20260509183048 | 28 | 18 | 0.0 | 6.4 | 0.00 | 0.03 | 0.03 | 28 | 1012.0 |
| 20260509182545 | 27 | 345 | 1.6 | 3.2 | 0.00 | 0.03 | 0.03 | 37 | 1012.2 |
| 20260509182042 | 27 | 292 | 3.2 | 4.8 | 0.00 | 0.03 | 0.03 | 32 | 1011.8 |
| 20260509181540 | 27 | 352 | 3.2 | 3.2 | 0.00 | 0.03 | 0.03 | 32 | 1011.8 |
| 20260509181037 | 27 | 4 | 3.2 | 4.8 | 0.00 | 0.03 | 0.03 | 31 | 1011.9 |
| 20260509180532 | 27 | 328 | 3.2 | 6.4 | 0.00 | 0.03 | 0.03 | 31 | 1011.9 |
| 20260509180030 | 27 | 4 | 0.0 | 3.2 | 0.00 | 0.03 | 0.03 | 33 | 1011.9 |
| 20260509175525 | 27 | 350 | 3.2 | 4.8 | 0.00 | 0.03 | 0.03 | 32 | 1012.2 |
| 20260509175022 | 27 | 354 | 1.6 | 3.2 | 0.00 | 0.03 | 0.03 | 32 | 1012.3 |
| 20260509174519 | 27 | 356 | 3.2 | 4.8 | 0.00 | 0.03 | 0.03 | 32 | 1012.3 |
| 20260509174014 | 27 | 348 | 3.2 | 6.4 | 0.00 | 0.03 | 0.03 | 35 | 1012.0 |
| 20260509173508 | 27 | 344 | 1.6 | 3.2 | 0.00 | 0.03 | 0.03 | 32 | 1012.2 |
| 20260509173005 | 27 | 359 | 1.6 | 9.7 | 0.00 | 0.03 | 0.03 | 34 | 1012.3 |
| 20260509172502 | 26 | 355 | 3.2 | 3.2 | 0.00 | 0.03 | 0.03 | 39 | 1012.5 |
| 20260509171958 | 27 | 20 | 3.2 | 11.3 | 0.00 | 0.03 | 0.03 | 37 | 1012.6 |
| 20260509171454 | 26 | 48 | 1.6 | 3.2 | 0.00 | 0.03 | 0.03 | 38 | 1012.6 |
| 20260509170951 | 27 | 356 | 1.6 | 4.8 | 0.00 | 0.03 | 0.03 | 36 | 1012.5 |
| 20260509170446 | 27 | 4 | 0.0 | 4.8 | 0.00 | 0.03 | 0.03 | 38 | 1012.7 |
| 20260509165942 | 26 | 352 | 1.6 | 6.4 | 0.00 | 0.03 | 0.03 | 37 | 1012.5 |
| 20260509165441 | 26 | 5 | 0.0 | 11.3 | 0.00 | 0.03 | 0.03 | 36 | 1012.5 |
| 20260509164937 | 26 | 16 | 1.6 | 4.8 | 0.00 | 0.03 | 0.03 | 39 | 1012.4 |
| 20260509164433 | 26 | 8 | 1.6 | 3.2 | 0.00 | 0.03 | 0.03 | 46 | 1012.6 |
| 20260509163929 | 26 | 357 | 3.2 | 3.2 | 0.00 | 0.03 | 0.03 | 39 | 1012.4 |
| 20260509163427 | 26 | 355 | 3.2 | 4.8 | 0.00 | 0.03 | 0.03 | 39 | 1012.4 |
| 20260509162925 | 26 | 6 | 3.2 | 6.4 | 0.00 | 0.03 | 0.03 | 37 | 1012.5 |
| 20260509162425 | 26 | 348 | 0.0 | 4.8 | 0.00 | 0.03 | 0.03 | 44 | 1012.5 |
| 20260509161920 | 26 | 2 | 1.6 | 11.3 | 0.00 | 0.03 | 0.03 | 40 | 1012.3 |
| 20260509161417 | 26 | 357 | 0.0 | 3.2 | 0.00 | 0.03 | 0.03 | 45 | 1012.3 |
| 20260509160912 | 26 | 3 | 1.6 | 4.8 | 0.00 | 0.03 | 0.03 | 40 | 1012.3 |
| 20260509160408 | 26 | 352 | 3.2 | 6.4 | 0.00 | 0.03 | 0.03 | 42 | 1012.4 |
| 20260509155903 | 26 | 162 | 6.4 | 6.4 | 0.00 | 0.03 | 0.03 | 38 | 1012.3 |
| 20260509155400 | 26 | 356 | 0.0 | 4.8 | 0.00 | 0.03 | 0.03 | 44 | 1012.3 |
| 20260509154857 | 26 | 7 | 1.6 | 3.2 | 0.00 | 0.03 | 0.03 | 41 | 1012.2 |
| 20260509154353 | 25 | 36 | 1.6 | 4.8 | 0.00 | 0.03 | 0.03 | 45 | 1012.2 |
| 20260509153850 | 25 | 1 | 0.0 | 3.2 | 0.00 | 0.03 | 0.03 | 44 | 1012.3 |
| 20260509153347 | 25 | 5 | 0.0 | 4.8 | 0.00 | 0.03 | 0.03 | 47 | 1012.2 |
| 20260509152844 | 24 | 2 | 1.6 | 3.2 | 0.00 | 0.03 | 0.03 | 50 | 1012.3 |
| 20260509152340 | 24 | 357 | 3.2 | 9.7 | 0.00 | 0.03 | 0.03 | 47 | 1012.2 |
| 20260509151837 | 24 | 359 | 4.8 | 4.8 | 0.00 | 0.03 | 0.03 | 49 | 1012.2 |
| 20260509151333 | 23 | 353 | 1.6 | 3.2 | 0.00 | 0.03 | 0.03 | 51 | 1012.3 |
| 20260509150832 | 23 | 10 | 0.0 | 4.8 | 0.00 | 0.03 | 0.03 | 53 | 1012.4 |
| 20260509150329 | 23 | 62 | 1.6 | 1.6 | 0.00 | 0.03 | 0.03 | 49 | 1012.3 |
| 20260509145826 | 23 | 5 | 3.2 | 3.2 | 0.00 | 0.03 | 0.03 | 52 | 1012.3 |
| 20260509145321 | 22 | 2 | 1.6 | 3.2 | 0.00 | 0.03 | 0.03 | 56 | 1012.4 |
| 20260509144818 | 22 | 3 | 1.6 | 4.8 | 0.00 | 0.03 | 0.03 | 56 | 1012.3 |
| 20260509144315 | 22 | 30 | 0.0 | 1.6 | 0.00 | 0.03 | 0.03 | 56 | 1012.2 |